createdAt,value
2019-03-24T00:01:02.701Z,5.20
2019-03-24T00:03:31.486Z,5.20
2019-03-24T00:06:00.339Z,5.30
2019-03-24T00:08:29.070Z,5.30
2019-03-24T00:10:57.811Z,5.20
2019-03-24T00:13:26.644Z,5.30
2019-03-24T00:15:55.384Z,5.30
2019-03-24T00:18:24.213Z,5.30
2019-03-24T00:20:52.955Z,5.30
2019-03-24T00:23:21.720Z,5.10
2019-03-24T00:25:50.461Z,5.20
2019-03-24T00:28:19.225Z,5.20
2019-03-24T00:30:48.013Z,5.30
2019-03-24T00:33:16.777Z,5.20
2019-03-24T00:35:45.614Z,5.30
2019-03-24T00:38:14.405Z,5.30
2019-03-24T00:40:43.145Z,5.30
2019-03-24T00:43:11.909Z,5.30
2019-03-24T00:45:40.673Z,5.20
2019-03-24T00:48:09.434Z,5.10
2019-03-24T00:50:38.180Z,5.00
2019-03-24T00:53:07.037Z,4.90
2019-03-24T00:55:35.969Z,4.90
2019-03-24T00:58:04.907Z,4.90
2019-03-24T01:00:47.625Z,4.90
2019-03-24T01:03:16.764Z,4.90
2019-03-24T01:05:46.065Z,4.80
2019-03-24T01:08:15.414Z,4.70
2019-03-24T01:10:44.279Z,4.90
2019-03-24T01:13:13.826Z,4.80
2019-03-24T01:15:47.782Z,4.70
2019-03-24T01:18:13.452Z,4.80
2019-03-24T01:20:42.212Z,4.70
2019-03-24T01:23:10.949Z,4.60
2019-03-24T01:25:39.709Z,4.60
2019-03-24T01:28:08.501Z,4.60
2019-03-24T01:30:37.290Z,4.60
2019-03-24T01:33:06.089Z,4.60
2019-03-24T01:35:34.956Z,4.50
2019-03-24T01:38:03.702Z,4.50
2019-03-24T01:40:32.538Z,4.60
2019-03-24T01:43:01.273Z,4.60
2019-03-24T01:45:32.394Z,4.70
2019-03-24T01:48:01.197Z,4.70
2019-03-24T01:50:30.046Z,4.70
2019-03-24T01:52:58.797Z,4.70
2019-03-24T01:55:27.557Z,4.80
2019-03-24T01:57:56.301Z,4.90
2019-03-24T02:00:25.233Z,4.90
2019-03-24T02:02:54.085Z,4.90
2019-03-24T02:05:22.861Z,4.90
2019-03-24T02:07:51.602Z,4.80
2019-03-24T02:10:20.489Z,4.80
2019-03-24T02:12:49.240Z,4.90
2019-03-24T02:15:17.986Z,4.90
2019-03-24T02:17:46.726Z,4.90
2019-03-24T02:20:15.601Z,4.80
2019-03-24T02:22:44.334Z,4.70
2019-03-24T02:25:13.321Z,4.50
2019-03-24T02:27:42.070Z,4.50
2019-03-24T02:30:11.370Z,4.50
2019-03-24T02:32:40.148Z,4.50
2019-03-24T02:35:09.384Z,4.50
2019-03-24T02:37:38.222Z,4.40
2019-03-24T02:40:08.545Z,4.40
2019-03-24T02:42:37.296Z,4.40
2019-03-24T02:45:06.895Z,4.50
2019-03-24T02:47:35.662Z,4.50
2019-03-24T02:50:06.365Z,4.50
2019-03-24T02:52:35.336Z,4.60
2019-03-24T02:55:06.035Z,4.70
2019-03-24T02:57:34.889Z,4.60
2019-03-24T03:00:08.648Z,4.40
2019-03-24T03:02:37.421Z,4.40
2019-03-24T03:05:08.872Z,4.30
2019-03-24T03:07:37.601Z,4.30
2019-03-24T03:10:08.787Z,4.30
2019-03-24T03:12:37.590Z,4.30
2019-03-24T03:15:08.510Z,4.30
2019-03-24T03:17:37.346Z,4.10
2019-03-24T03:20:08.082Z,4.00
2019-03-24T03:22:36.883Z,4.00
2019-03-24T03:25:07.818Z,3.90
2019-03-24T03:27:36.626Z,3.90
2019-03-24T03:30:09.520Z,3.90
2019-03-24T03:32:38.883Z,3.90
2019-03-24T03:35:09.561Z,3.90
2019-03-24T03:37:38.404Z,4.00
2019-03-24T03:40:08.945Z,3.90
2019-03-24T03:42:39.430Z,3.80
2019-03-24T03:45:10.345Z,3.70
2019-03-24T03:47:39.682Z,3.70
2019-03-24T03:50:09.050Z,3.60
2019-03-24T03:52:37.787Z,3.60
2019-03-24T03:55:06.863Z,3.60
2019-03-24T03:57:35.585Z,3.60
2019-03-24T04:00:06.642Z,3.60
2019-03-24T04:02:35.473Z,3.60
2019-03-24T04:05:06.126Z,3.60
2019-03-24T04:07:34.894Z,3.50
2019-03-24T04:10:03.920Z,3.50
2019-03-24T04:12:32.754Z,3.60
2019-03-24T04:15:01.567Z,3.60
2019-03-24T04:17:30.334Z,3.70
2019-03-24T04:19:59.069Z,3.70
2019-03-24T04:22:27.994Z,3.60
2019-03-24T04:24:56.771Z,3.60
2019-03-24T04:27:25.538Z,3.50
2019-03-24T04:29:57.305Z,3.40
2019-03-24T04:32:26.070Z,3.40
2019-03-24T04:34:55.000Z,3.50
2019-03-24T04:37:23.768Z,3.60
2019-03-24T04:39:52.501Z,3.50
2019-03-24T04:42:21.268Z,3.30
2019-03-24T04:44:50.006Z,3.30
2019-03-24T04:47:18.766Z,3.20
2019-03-24T04:49:47.515Z,3.20
2019-03-24T04:52:16.281Z,3.20
2019-03-24T04:54:45.022Z,3.20
2019-03-24T04:57:13.786Z,3.20
2019-03-24T04:59:42.666Z,3.30
2019-03-24T05:02:11.401Z,3.30
2019-03-24T05:04:40.250Z,3.30
2019-03-24T05:07:10.350Z,3.20
2019-03-24T05:09:39.466Z,3.10
2019-03-24T05:12:09.340Z,3.10
2019-03-24T05:14:38.077Z,3.00
2019-03-24T05:17:06.813Z,3.00
2019-03-24T05:19:35.649Z,3.00
2019-03-24T05:22:04.393Z,3.00
2019-03-24T05:24:33.231Z,3.00
2019-03-24T05:27:02.037Z,3.00
2019-03-24T05:29:30.801Z,3.00
2019-03-24T05:31:59.541Z,3.00
2019-03-24T05:34:28.313Z,3.20
2019-03-24T05:36:57.187Z,3.20
2019-03-24T05:39:25.882Z,3.20
2019-03-24T05:41:54.648Z,3.20
2019-03-24T05:44:23.581Z,3.20
2019-03-24T05:46:52.341Z,3.20
2019-03-24T05:49:21.083Z,3.20
2019-03-24T05:51:49.875Z,3.30
2019-03-24T05:54:18.604Z,3.30
2019-03-24T05:56:47.376Z,3.40
2019-03-24T05:59:16.116Z,3.50
2019-03-24T06:01:44.882Z,3.60
2019-03-24T06:04:13.621Z,3.60
2019-03-24T06:06:42.384Z,3.70
2019-03-24T06:09:11.153Z,3.90
2019-03-24T06:11:39.920Z,3.90
2019-03-24T06:14:08.733Z,4.10
2019-03-24T06:16:38.030Z,4.20
2019-03-24T06:19:06.901Z,4.20
2019-03-24T06:21:35.641Z,4.30
2019-03-24T06:24:04.509Z,4.40
2019-03-24T06:26:33.241Z,4.50
2019-03-24T06:29:02.118Z,4.60
2019-03-24T06:31:30.857Z,4.80
2019-03-24T06:33:59.617Z,4.90
2019-03-24T06:36:28.358Z,5.00
2019-03-24T06:38:57.125Z,5.10
2019-03-24T06:41:25.926Z,5.20
2019-03-24T06:43:54.730Z,5.30
2019-03-24T06:46:23.473Z,5.50
2019-03-24T06:48:52.304Z,5.60
2019-03-24T06:51:21.037Z,5.80
2019-03-24T06:53:49.804Z,5.90
2019-03-24T06:56:18.568Z,6.10
2019-03-24T06:58:47.305Z,6.10
2019-03-24T07:01:16.077Z,6.30
2019-03-24T07:03:44.814Z,6.40
2019-03-24T07:06:13.586Z,6.60
2019-03-24T07:08:43.679Z,6.70
2019-03-24T07:11:13.836Z,6.80
2019-03-24T07:13:42.853Z,6.90
2019-03-24T07:16:11.621Z,7.00
2019-03-24T07:18:40.361Z,7.10
2019-03-24T07:21:10.797Z,7.30
2019-03-24T07:23:40.529Z,7.40
2019-03-24T07:26:09.322Z,7.50
2019-03-24T07:28:38.074Z,7.60
2019-03-24T07:31:07.018Z,7.80
2019-03-24T07:33:37.708Z,7.90
2019-03-24T07:36:06.194Z,8.00
2019-03-24T07:38:34.972Z,8.20
2019-03-24T07:41:03.781Z,8.30
2019-03-24T07:43:32.541Z,8.40
2019-03-24T07:46:01.427Z,8.60
2019-03-24T07:48:30.278Z,8.70
2019-03-24T07:50:59.045Z,8.90
2019-03-24T07:53:27.809Z,9.10
2019-03-24T07:55:56.541Z,9.40
2019-03-24T07:58:25.319Z,9.40
2019-03-24T08:00:54.051Z,9.50
2019-03-24T08:03:22.905Z,9.60
2019-03-24T08:05:51.762Z,9.60
2019-03-24T08:08:20.585Z,9.80
2019-03-24T08:10:49.384Z,9.90
2019-03-24T08:13:18.161Z,9.90
2019-03-24T08:15:46.905Z,10.10
2019-03-24T08:18:15.729Z,10.40
2019-03-24T08:20:44.590Z,10.30
2019-03-24T08:23:13.442Z,10.40
2019-03-24T08:25:42.282Z,10.50
2019-03-24T08:28:11.052Z,10.50
2019-03-24T08:30:39.823Z,10.70
2019-03-24T08:33:08.561Z,10.70
2019-03-24T08:35:37.329Z,10.80
2019-03-24T08:38:06.104Z,10.80
2019-03-24T08:40:35.029Z,10.80
2019-03-24T08:43:04.069Z,11.00
2019-03-24T08:45:32.841Z,11.10
2019-03-24T08:48:01.592Z,11.20
2019-03-24T08:50:30.390Z,11.30
2019-03-24T08:52:59.129Z,11.30
2019-03-24T08:55:27.898Z,11.40
2019-03-24T08:57:56.642Z,11.60
2019-03-24T09:00:30.474Z,11.80
2019-03-24T09:02:55.830Z,11.90
2019-03-24T09:05:24.665Z,12.00
2019-03-24T09:07:53.506Z,12.00
2019-03-24T09:10:22.296Z,12.10
2019-03-24T09:12:51.109Z,12.20
2019-03-24T09:15:19.854Z,12.30
2019-03-24T09:17:48.627Z,12.40
2019-03-24T09:20:17.362Z,12.40
2019-03-24T09:22:46.166Z,12.50
2019-03-24T09:25:14.969Z,12.70
2019-03-24T09:27:43.770Z,12.90
2019-03-24T09:30:18.233Z,12.90
2019-03-24T09:32:47.017Z,13.00
2019-03-24T09:35:15.809Z,13.10
2019-03-24T09:37:44.645Z,13.10
2019-03-24T09:40:18.571Z,13.10
2019-03-24T09:42:46.811Z,13.00
2019-03-24T09:45:15.545Z,13.10
2019-03-24T09:47:44.345Z,13.30
2019-03-24T09:50:13.320Z,13.30
2019-03-24T09:52:42.054Z,13.40
2019-03-24T09:55:10.821Z,13.50
2019-03-24T09:57:39.557Z,13.50
2019-03-24T10:00:08.397Z,13.60
2019-03-24T10:02:37.218Z,13.70
2019-03-24T10:05:06.391Z,13.80
2019-03-24T10:07:35.170Z,14.00
2019-03-24T10:10:08.009Z,14.10
2019-03-24T10:12:36.749Z,14.20
2019-03-24T10:15:06.379Z,14.10
2019-03-24T10:17:35.141Z,14.30
2019-03-24T10:20:04.109Z,14.40
2019-03-24T10:22:32.854Z,14.60
2019-03-24T10:25:01.738Z,14.60
2019-03-24T10:27:30.572Z,14.80
2019-03-24T10:29:59.368Z,14.90
2019-03-24T10:32:28.209Z,15.00
2019-03-24T10:34:56.955Z,15.00
2019-03-24T10:37:25.741Z,15.00
2019-03-24T10:39:54.477Z,15.00
2019-03-24T10:42:23.361Z,15.00
2019-03-24T10:44:52.205Z,15.10
2019-03-24T10:47:21.048Z,15.20
2019-03-24T10:49:49.811Z,15.30
2019-03-24T10:52:18.641Z,15.60
2019-03-24T10:54:47.457Z,15.70
2019-03-24T10:57:16.297Z,15.70
2019-03-24T10:59:45.105Z,15.80
2019-03-24T11:02:14.821Z,16.00
2019-03-24T11:04:43.565Z,16.10
2019-03-24T11:07:12.357Z,16.20
2019-03-24T11:09:41.133Z,16.20
2019-03-24T11:12:09.866Z,16.20
2019-03-24T11:14:38.673Z,16.00
2019-03-24T11:17:07.421Z,16.00
2019-03-24T11:19:36.252Z,16.10
2019-03-24T11:22:05.060Z,16.20
2019-03-24T11:24:33.841Z,16.20
2019-03-24T11:27:02.629Z,16.30
2019-03-24T11:29:31.449Z,16.50
2019-03-24T11:32:00.180Z,16.40
2019-03-24T11:34:29.036Z,16.50
2019-03-24T11:36:57.886Z,16.50
2019-03-24T11:39:26.661Z,16.40
2019-03-24T11:41:55.452Z,16.30
2019-03-24T11:44:24.277Z,16.40
2019-03-24T11:46:53.013Z,16.50
2019-03-24T11:49:21.789Z,16.50
2019-03-24T11:51:50.526Z,16.60
2019-03-24T11:54:19.296Z,16.60
2019-03-24T11:56:48.114Z,16.60
2019-03-24T11:59:16.933Z,16.70
2019-03-24T12:01:45.697Z,16.70
2019-03-24T12:04:14.469Z,16.80
2019-03-24T12:06:43.214Z,16.70
2019-03-24T12:09:12.054Z,16.80
2019-03-24T12:11:40.789Z,16.70
2019-03-24T12:14:09.570Z,16.70
2019-03-24T12:16:38.312Z,16.80
2019-03-24T12:19:07.201Z,16.90
2019-03-24T12:21:36.058Z,16.90
2019-03-24T12:24:04.897Z,17.00
2019-03-24T12:26:33.705Z,17.00
2019-03-24T12:29:02.557Z,17.00
2019-03-24T12:31:31.296Z,16.90
2019-03-24T12:34:00.040Z,17.10
2019-03-24T12:36:28.920Z,17.10
2019-03-24T12:38:57.668Z,17.00
2019-03-24T12:41:27.627Z,17.10
2019-03-24T12:43:56.382Z,17.10
2019-03-24T12:46:25.196Z,17.10
2019-03-24T12:48:53.938Z,17.20
2019-03-24T12:51:22.701Z,17.10
2019-03-24T12:53:51.461Z,17.20
2019-03-24T12:56:20.300Z,17.20
2019-03-24T12:58:49.036Z,17.20
2019-03-24T13:01:17.885Z,17.30
2019-03-24T13:03:46.630Z,17.20
2019-03-24T13:06:15.471Z,17.30
2019-03-24T13:08:44.253Z,17.20
2019-03-24T13:11:13.093Z,17.20
2019-03-24T13:13:41.934Z,17.20
2019-03-24T13:16:10.773Z,17.10
2019-03-24T13:18:39.585Z,17.20
2019-03-24T13:21:08.471Z,17.30
2019-03-24T13:23:37.299Z,17.40
2019-03-24T13:26:06.068Z,17.40
2019-03-24T13:28:34.806Z,17.30
2019-03-24T13:31:03.573Z,17.40
2019-03-24T13:33:32.321Z,17.40
2019-03-24T13:36:08.673Z,17.40
2019-03-24T13:38:37.420Z,17.40
2019-03-24T13:41:06.218Z,17.40
2019-03-24T13:43:35.005Z,17.40
2019-03-24T13:46:03.814Z,17.60
2019-03-24T13:48:32.561Z,17.50
2019-03-24T13:51:01.328Z,17.60
2019-03-24T13:53:30.145Z,17.50
2019-03-24T13:55:59.004Z,17.20
2019-03-24T13:58:27.753Z,17.20
2019-03-24T14:00:56.528Z,17.30
2019-03-24T14:03:25.369Z,17.40
2019-03-24T14:05:56.660Z,17.60
2019-03-24T14:08:25.509Z,17.50
2019-03-24T14:10:54.345Z,17.60
2019-03-24T14:13:23.170Z,17.60
2019-03-24T14:15:51.939Z,17.40
2019-03-24T14:18:20.937Z,17.50
2019-03-24T14:20:49.646Z,17.40
2019-03-24T14:23:18.422Z,17.50
2019-03-24T14:25:47.261Z,17.50
2019-03-24T14:28:16.080Z,17.50
2019-03-24T14:30:49.044Z,17.40
2019-03-24T14:33:18.045Z,17.40
2019-03-24T14:35:46.955Z,17.40
2019-03-24T14:38:15.853Z,17.30
2019-03-24T14:40:44.742Z,17.20
2019-03-24T14:43:13.521Z,17.10
2019-03-24T14:45:42.258Z,17.20
2019-03-24T14:48:11.022Z,17.20
2019-03-24T14:50:39.846Z,17.20
2019-03-24T14:53:08.613Z,17.30
2019-03-24T14:55:37.352Z,17.30
2019-03-24T14:58:06.354Z,17.40
2019-03-24T15:00:43.027Z,17.40
2019-03-24T15:03:12.500Z,17.30
2019-03-24T15:05:44.553Z,17.40
2019-03-24T15:08:13.790Z,17.30
2019-03-24T15:10:44.215Z,17.30
2019-03-24T15:13:13.022Z,17.30
2019-03-24T15:15:43.437Z,17.20
2019-03-24T15:18:12.244Z,17.20
2019-03-24T15:20:44.065Z,17.40
2019-03-24T15:23:12.882Z,17.40
2019-03-24T15:25:43.066Z,17.30
2019-03-24T15:31:01.142Z,17.20
2019-03-24T15:33:30.446Z,17.20
2019-03-24T15:36:02.914Z,17.20
2019-03-24T15:38:33.970Z,17.10
2019-03-24T15:41:09.848Z,17.10
2019-03-24T15:43:41.009Z,17.10
2019-03-24T15:46:09.049Z,17.20
2019-03-24T15:48:37.793Z,17.10
2019-03-24T15:51:16.449Z,17.20
2019-03-24T15:53:37.071Z,17.00
2019-03-24T15:56:07.012Z,17.00
2019-03-24T15:58:35.778Z,17.00
2019-03-24T16:01:04.668Z,17.00
2019-03-24T16:03:33.441Z,17.00
2019-03-24T16:06:02.181Z,17.00
2019-03-24T16:08:30.949Z,16.80
2019-03-24T16:10:59.684Z,16.80
2019-03-24T16:13:28.472Z,16.80
2019-03-24T16:15:57.266Z,16.80
2019-03-24T16:18:26.104Z,16.70
2019-03-24T16:20:54.836Z,16.60
2019-03-24T16:23:23.609Z,16.60
2019-03-24T16:25:52.346Z,16.60
2019-03-24T16:28:21.116Z,16.50
2019-03-24T16:30:49.912Z,16.40
2019-03-24T16:33:18.694Z,16.50
2019-03-24T16:35:47.443Z,16.40
2019-03-24T16:38:16.221Z,16.20
2019-03-24T16:40:44.964Z,16.20
2019-03-24T16:43:13.745Z,16.10
2019-03-24T16:45:42.581Z,16.20
2019-03-24T16:48:11.374Z,16.10
2019-03-24T16:50:40.104Z,16.00
2019-03-24T16:53:08.837Z,16.00
2019-03-24T16:55:37.609Z,15.90
2019-03-24T16:58:06.350Z,15.90
2019-03-24T17:00:35.134Z,15.70
2019-03-24T17:03:04.078Z,15.60
2019-03-24T17:05:32.845Z,15.50
2019-03-24T17:08:01.653Z,15.40
2019-03-24T17:10:30.423Z,15.30
2019-03-24T17:12:59.159Z,15.30
2019-03-24T17:15:27.934Z,15.20
2019-03-24T17:17:56.673Z,15.00
2019-03-24T17:20:25.447Z,14.90
2019-03-24T17:22:54.215Z,14.80
2019-03-24T17:25:22.949Z,14.70
2019-03-24T17:27:51.718Z,14.70
2019-03-24T17:30:20.462Z,14.70
2019-03-24T17:32:49.224Z,14.80
2019-03-24T17:35:17.965Z,14.60
2019-03-24T17:37:46.749Z,14.50
2019-03-24T17:40:15.789Z,14.40
2019-03-24T17:42:44.566Z,14.40
2019-03-24T17:45:13.697Z,14.40
2019-03-24T17:47:44.134Z,14.40
2019-03-24T17:50:13.458Z,14.40
2019-03-24T17:52:42.325Z,14.30
2019-03-24T17:55:11.646Z,14.20
2019-03-24T17:57:41.145Z,14.20
2019-03-24T18:00:13.057Z,14.10
2019-03-24T18:02:41.830Z,14.00
2019-03-24T18:05:11.009Z,13.80
2019-03-24T18:07:39.934Z,13.80
2019-03-24T18:10:10.485Z,13.80
2019-03-24T18:12:39.229Z,13.70
2019-03-24T18:15:09.717Z,13.70
2019-03-24T18:17:38.545Z,13.70
2019-03-24T18:20:08.183Z,13.50
2019-03-24T18:22:37.022Z,13.50
2019-03-24T18:25:07.482Z,13.40
2019-03-24T18:27:36.301Z,13.40
2019-03-24T18:30:08.214Z,13.40
2019-03-24T18:32:37.125Z,13.40
2019-03-24T18:35:08.336Z,13.30
2019-03-24T18:37:37.181Z,13.20
2019-03-24T18:40:08.334Z,13.10
2019-03-24T18:42:37.370Z,13.10
2019-03-24T18:45:11.262Z,13.00
2019-03-24T18:47:40.599Z,12.80
2019-03-24T18:50:10.720Z,12.60
2019-03-24T18:52:39.482Z,12.60
2019-03-24T18:55:09.232Z,12.60
2019-03-24T18:57:38.015Z,12.50
2019-03-24T19:00:09.346Z,12.50
2019-03-24T19:02:38.291Z,12.50
2019-03-24T19:07:32.277Z,12.60
2019-03-24T19:10:01.140Z,12.50
2019-03-24T19:12:30.059Z,12.40
2019-03-24T19:14:58.951Z,12.20
2019-03-24T19:17:27.827Z,12.10
2019-03-24T19:19:56.928Z,12.10
2019-03-24T19:22:33.448Z,12.10
2019-03-24T19:24:56.306Z,12.10
2019-03-24T19:27:25.364Z,12.00
2019-03-24T19:29:54.198Z,12.00
2019-03-24T19:32:22.966Z,12.00
2019-03-24T19:34:51.877Z,12.00
2019-03-24T19:37:20.879Z,11.90
2019-03-24T19:39:49.904Z,11.90
2019-03-24T19:42:18.787Z,11.90
2019-03-24T19:44:47.820Z,12.00
2019-03-24T19:47:16.899Z,11.80
2019-03-24T19:49:45.679Z,11.70
2019-03-24T19:52:14.522Z,11.70
2019-03-24T19:54:43.645Z,11.80
2019-03-24T19:57:13.916Z,11.80
2019-03-24T19:59:44.169Z,11.70
2019-03-24T20:02:16.727Z,11.60
2019-03-24T20:04:45.221Z,11.50
2019-03-24T20:07:14.136Z,11.50
2019-03-24T20:09:42.957Z,11.50
2019-03-24T20:12:15.876Z,11.50
2019-03-24T20:14:44.366Z,11.60
2019-03-24T20:17:14.850Z,11.40
2019-03-24T20:19:43.740Z,11.30
2019-03-24T20:22:13.902Z,11.20
2019-03-24T20:24:42.889Z,11.10
2019-03-24T20:27:11.725Z,11.00
2019-03-24T20:29:40.886Z,11.00
2019-03-24T20:32:09.888Z,10.90
2019-03-24T20:34:38.858Z,10.80
2019-03-24T20:37:07.819Z,10.80
2019-03-24T20:39:38.336Z,10.70
2019-03-24T20:42:09.997Z,10.80
2019-03-24T20:44:38.805Z,10.80
2019-03-24T20:47:07.597Z,10.70
2019-03-24T20:49:38.308Z,10.50
2019-03-24T20:52:06.765Z,10.50
2019-03-24T20:54:35.610Z,10.50
2019-03-24T20:57:04.505Z,10.50
2019-03-24T20:59:33.278Z,10.40
2019-03-24T21:02:03.267Z,10.30
2019-03-24T21:04:32.062Z,10.40
2019-03-24T21:07:00.870Z,10.40
2019-03-24T21:09:29.647Z,10.20
2019-03-24T21:11:58.386Z,10.20
2019-03-24T21:14:27.154Z,10.10
2019-03-24T21:16:55.906Z,10.10
2019-03-24T21:19:24.687Z,9.90
2019-03-24T21:21:53.489Z,9.80
2019-03-24T21:24:22.264Z,9.60
2019-03-24T21:26:51.049Z,9.50
2019-03-24T21:29:19.969Z,9.40
2019-03-24T21:31:48.721Z,9.30
2019-03-24T21:34:17.529Z,9.20
2019-03-24T21:36:46.375Z,9.20
2019-03-24T21:39:15.186Z,9.10
2019-03-24T21:41:43.962Z,9.10
2019-03-24T21:44:12.801Z,9.10
2019-03-24T21:46:41.570Z,9.00
2019-03-24T21:49:10.314Z,8.90
2019-03-24T21:51:39.081Z,8.90
2019-03-24T21:54:07.883Z,8.90
2019-03-24T21:56:36.662Z,8.80
2019-03-24T21:59:05.492Z,8.80
2019-03-24T22:01:34.329Z,8.80
2019-03-24T22:04:03.145Z,8.80
2019-03-24T22:06:31.907Z,8.70
2019-03-24T22:09:00.646Z,8.60
2019-03-24T22:11:30.713Z,8.50
2019-03-24T22:13:59.441Z,8.30
2019-03-24T22:16:28.222Z,8.30
2019-03-24T22:18:56.985Z,8.20
2019-03-24T22:21:25.726Z,8.10
2019-03-24T22:23:54.488Z,8.20
2019-03-24T22:26:23.338Z,8.20
2019-03-24T22:28:52.054Z,8.10
2019-03-24T22:31:20.808Z,8.00
2019-03-24T22:33:49.553Z,8.00
2019-03-24T22:36:18.292Z,8.00
2019-03-24T22:38:47.054Z,8.00
2019-03-24T22:41:15.801Z,8.00
2019-03-24T22:43:44.566Z,8.00
2019-03-24T22:46:13.381Z,8.00
2019-03-24T22:48:42.158Z,7.90
2019-03-24T22:51:10.893Z,8.00
2019-03-24T22:53:39.666Z,8.00
2019-03-24T22:56:08.413Z,8.00
2019-03-24T22:58:38.652Z,8.00
2019-03-24T23:01:07.468Z,8.00
2019-03-24T23:03:36.209Z,8.00
2019-03-24T23:06:05.356Z,8.00
2019-03-24T23:08:34.094Z,8.00
2019-03-24T23:11:02.870Z,8.10
2019-03-24T23:13:31.621Z,8.00
2019-03-24T23:16:00.381Z,8.20
2019-03-24T23:18:29.212Z,8.10
2019-03-24T23:20:59.808Z,8.10
2019-03-24T23:23:28.496Z,8.10
2019-03-24T23:25:57.270Z,8.20
2019-03-24T23:28:26.068Z,8.20
2019-03-24T23:30:54.874Z,8.20
2019-03-24T23:33:23.609Z,8.20
2019-03-24T23:35:52.377Z,8.20
2019-03-24T23:38:21.326Z,8.30
2019-03-24T23:40:50.126Z,8.40
2019-03-24T23:43:18.867Z,8.40
2019-03-24T23:45:47.637Z,8.40
2019-03-24T23:48:16.488Z,8.40
2019-03-24T23:50:45.260Z,8.30
2019-03-24T23:53:13.993Z,8.30
2019-03-24T23:55:42.765Z,8.30
2019-03-24T23:58:11.674Z,8.20
